createdAt,value
2022-11-05T09:03:47.251Z,17.81
2022-11-05T09:09:39.448Z,22.56
2022-11-05T09:14:35.907Z,24.67
2022-11-05T09:19:39.920Z,24.05
2022-11-05T09:24:34.705Z,25.47
2022-11-05T09:39:36.071Z,23.69
2022-11-05T09:44:32.212Z,23.11
2022-11-05T09:49:31.854Z,23.77
2022-11-05T09:54:34.496Z,23.70
2022-11-05T09:59:30.982Z,25.38
2022-11-05T10:04:30.633Z,24.13
2022-11-05T10:09:33.324Z,23.89
2022-11-05T10:14:37.475Z,22.76
2022-11-05T10:19:34.469Z,22.50
2022-11-05T10:24:28.675Z,24.08
2022-11-05T10:29:27.885Z,22.91
2022-11-05T10:34:30.222Z,23.18
2022-11-05T10:39:28.737Z,24.42
2022-11-05T10:44:29.924Z,24.32
2022-11-05T10:49:25.632Z,24.39
2022-11-05T10:54:24.678Z,23.57
2022-11-05T10:59:24.030Z,24.41
2022-11-05T11:04:23.526Z,26.34
2022-11-05T11:09:22.942Z,25.75
2022-11-05T11:14:25.507Z,25.60
2022-11-05T11:19:24.292Z,25.22
2022-11-05T11:24:29.666Z,24.08
2022-11-05T11:29:20.853Z,24.43
2022-11-05T11:34:23.014Z,25.22
2022-11-05T11:39:19.260Z,25.89
2022-11-05T11:44:18.621Z,27.12
2022-11-05T11:49:21.262Z,26.97
2022-11-05T11:54:19.013Z,25.80
2022-11-05T11:59:17.359Z,27.26
2022-11-05T12:04:23.137Z,26.14
2022-11-05T12:09:19.760Z,30.20
2022-11-05T12:14:16.094Z,29.62
2022-11-05T12:19:15.493Z,30.38
2022-11-05T12:24:18.368Z,29.77
2022-11-05T12:29:19.348Z,27.12
2022-11-05T12:34:17.024Z,26.64
2022-11-05T12:39:13.309Z,26.02
2022-11-05T12:44:13.774Z,27.48
2022-11-05T12:49:15.207Z,26.07
2022-11-05T12:54:12.173Z,26.70
2022-11-05T12:59:14.642Z,27.68
2022-11-05T13:04:15.232Z,27.65
2022-11-05T13:09:10.605Z,27.89
2022-11-05T13:14:10.058Z,27.85
2022-11-05T13:19:12.921Z,29.66
2022-11-05T13:24:09.190Z,26.45
2022-11-05T13:29:11.476Z,28.14
2022-11-05T13:34:10.832Z,26.09
2022-11-05T13:39:10.711Z,29.98
2022-11-05T13:44:10.127Z,26.79
2022-11-05T13:49:06.387Z,29.17
2022-11-05T13:54:05.682Z,29.49
2022-11-05T13:59:10.598Z,25.45
2022-11-05T14:04:05.861Z,26.48
2022-11-05T14:09:05.337Z,26.01
2022-11-05T14:14:09.828Z,26.14
2022-11-05T14:19:04.375Z,24.83
2022-11-05T14:24:02.548Z,24.78
2022-11-05T14:29:04.908Z,28.07
2022-11-05T14:34:03.976Z,25.11
2022-11-05T14:39:04.237Z,25.43
2022-11-05T14:44:03.637Z,24.77
2022-11-05T14:49:02.851Z,24.23
2022-11-05T14:54:02.370Z,25.92
2022-11-05T14:58:58.707Z,25.21
2022-11-05T15:03:58.275Z,26.80
2022-11-05T15:08:58.156Z,24.65
2022-11-05T15:14:01.143Z,23.07
2022-11-05T15:19:03.096Z,23.81
2022-11-05T15:23:59.663Z,22.65
2022-11-05T15:28:58.962Z,22.93
2022-11-05T15:33:55.461Z,23.28
2022-11-05T15:39:22.810Z,23.38
2022-11-05T15:43:54.816Z,24.86
2022-11-05T15:48:54.477Z,23.69
2022-11-05T15:58:53.591Z,24.52
2022-11-05T16:03:52.892Z,23.00
2022-11-05T16:08:55.544Z,22.97
2022-11-05T16:13:51.728Z,22.17
2022-11-05T16:18:51.300Z,23.78
2022-11-05T16:23:53.506Z,23.39
2022-11-05T16:28:51.611Z,23.98
2022-11-05T16:33:52.730Z,22.30
2022-11-05T16:38:49.107Z,22.82
2022-11-05T16:43:50.553Z,21.72
2022-11-05T16:48:47.266Z,22.07
2022-11-05T16:53:48.944Z,22.88
2022-11-05T16:58:50.950Z,22.69
2022-11-05T17:03:45.054Z,22.74
2022-11-05T17:08:49.484Z,22.72
2022-11-05T17:13:46.731Z,21.33
2022-11-05T17:18:43.426Z,21.28
2022-11-05T17:23:46.868Z,21.05
2022-11-05T17:28:42.103Z,21.13
2022-11-05T17:33:41.245Z,21.53
2022-11-05T17:38:40.687Z,21.33
2022-11-05T17:43:43.317Z,21.49
2022-11-05T17:48:39.880Z,21.62
2022-11-05T17:53:41.293Z,22.01
2022-11-05T17:58:41.784Z,22.15
2022-11-05T18:03:38.002Z,21.43
2022-11-05T18:08:37.518Z,21.21
2022-11-05T18:13:36.888Z,21.49
2022-11-05T18:18:39.154Z,21.37
2022-11-05T18:23:35.719Z,22.36
2022-11-05T18:28:37.697Z,21.77
2022-11-05T18:33:38.429Z,20.78
2022-11-05T18:38:36.622Z,21.67
2022-11-05T18:43:34.231Z,21.81
2022-11-05T18:48:37.769Z,22.56
2022-11-05T18:53:32.972Z,22.00
2022-11-05T18:58:32.681Z,21.87
2022-11-05T19:03:34.622Z,22.02
2022-11-05T19:08:48.582Z,21.83
2022-11-05T19:13:52.716Z,21.18
2022-11-05T19:18:35.893Z,22.14
2022-11-05T19:29:31.551Z,21.99
2022-11-05T19:37:27.967Z,23.02
2022-11-05T19:48:35.848Z,21.12
2022-11-05T19:53:31.292Z,21.51
2022-11-05T19:58:26.732Z,22.19
2022-11-05T20:03:26.718Z,21.48
2022-11-05T20:08:28.025Z,20.73
2022-11-05T20:13:24.627Z,21.58
2022-11-05T20:18:27.170Z,23.65
2022-11-05T20:23:29.946Z,22.81
2022-11-05T20:28:23.190Z,22.07
2022-11-05T20:33:25.456Z,21.19
2022-11-05T20:38:22.041Z,21.41
2022-11-05T20:43:29.061Z,20.66
2022-11-05T20:48:28.221Z,21.42
2022-11-05T20:53:23.498Z,21.75
2022-11-05T20:58:24.257Z,22.30
2022-11-05T21:03:26.337Z,21.82
2022-11-05T21:08:20.061Z,21.42
2022-11-05T21:13:24.228Z,21.99
2022-11-05T21:18:25.556Z,22.12
2022-11-05T21:23:21.796Z,21.63
2022-11-05T21:28:16.320Z,22.73
2022-11-05T21:33:18.360Z,22.26
2022-11-05T21:38:15.709Z,22.26
2022-11-05T21:43:15.687Z,22.08
2022-11-05T21:48:15.086Z,22.40
2022-11-05T21:53:14.633Z,22.80
2022-11-05T21:58:28.587Z,23.01
2022-11-05T22:03:14.131Z,23.16
2022-11-05T22:08:17.093Z,23.32
2022-11-05T22:27:59.031Z,20.76
2022-11-05T22:33:50.437Z,26.50
2022-11-05T22:43:43.352Z,25.76
2022-11-05T22:48:48.804Z,26.03
2022-11-05T22:53:43.672Z,24.60
2022-11-05T22:58:40.280Z,24.83
2022-11-05T23:03:43.021Z,24.63
2022-11-05T23:08:39.167Z,24.69
2022-11-05T23:13:38.730Z,26.02
2022-11-05T23:18:41.248Z,25.48
2022-11-05T23:23:40.597Z,24.37
2022-11-05T23:28:39.363Z,25.61
2022-11-05T23:33:36.554Z,25.85
2022-11-05T23:38:40.077Z,25.03
2022-11-05T23:43:43.968Z,25.16
2022-11-05T23:48:36.456Z,25.17
2022-11-05T23:53:34.990Z,25.84
2022-11-05T23:58:37.685Z,24.97
